sensor_id;sensor_type;location;lat;lon;timestamp;P1;durP1;ratioP1;P2;durP2;ratioP2
64966;SDS011;51710;38.732;-121.358;2023-02-28T00:00:51;2.58;;;1.02;;
64966;SDS011;51710;38.732;-121.358;2023-02-28T00:03:18;2.30;;;1.00;;
64966;SDS011;51710;38.732;-121.358;2023-02-28T00:05:44;3.25;;;1.27;;
64966;SDS011;51710;38.732;-121.358;2023-02-28T00:08:12;1.77;;;0.90;;
64966;SDS011;51710;38.732;-121.358;2023-02-28T00:10:40;2.35;;;0.90;;
64966;SDS011;51710;38.732;-121.358;2023-02-28T00:13:08;1.67;;;0.73;;
64966;SDS011;51710;38.732;-121.358;2023-02-28T00:15:41;2.67;;;1.02;;
64966;SDS011;51710;38.732;-121.358;2023-02-28T00:18:13;1.35;;;0.68;;
64966;SDS011;51710;38.732;-121.358;2023-02-28T00:20:42;2.08;;;0.60;;
64966;SDS011;51710;38.732;-121.358;2023-02-28T00:23:08;0.90;;;0.50;;
64966;SDS011;51710;38.732;-121.358;2023-02-28T00:25:35;2.90;;;0.63;;
64966;SDS011;51710;38.732;-121.358;2023-02-28T00:28:01;3.25;;;0.90;;
64966;SDS011;51710;38.732;-121.358;2023-02-28T00:30:27;0.85;;;0.68;;
64966;SDS011;51710;38.732;-121.358;2023-02-28T00:32:54;0.95;;;0.60;;
64966;SDS011;51710;38.732;-121.358;2023-02-28T00:35:20;1.55;;;0.50;;
64966;SDS011;51710;38.732;-121.358;2023-02-28T00:37:47;2.35;;;0.98;;
64966;SDS011;51710;38.732;-121.358;2023-02-28T00:40:14;2.75;;;0.70;;
64966;SDS011;51710;38.732;-121.358;2023-02-28T00:42:41;0.98;;;0.60;;
64966;SDS011;51710;38.732;-121.358;2023-02-28T00:45:07;1.90;;;0.68;;
64966;SDS011;51710;38.732;-121.358;2023-02-28T00:47:34;1.25;;;0.65;;
64966;SDS011;51710;38.732;-121.358;2023-02-28T00:50:00;2.22;;;0.80;;
64966;SDS011;51710;38.732;-121.358;2023-02-28T00:52:32;2.10;;;0.70;;
64966;SDS011;51710;38.732;-121.358;2023-02-28T00:55:02;0.98;;;0.70;;
64966;SDS011;51710;38.732;-121.358;2023-02-28T00:57:29;2.40;;;0.98;;
64966;SDS011;51710;38.732;-121.358;2023-02-28T00:59:55;1.08;;;0.73;;
64966;SDS011;51710;38.732;-121.358;2023-02-28T01:02:21;2.97;;;0.70;;
64966;SDS011;51710;38.732;-121.358;2023-02-28T01:04:48;1.45;;;0.73;;
64966;SDS011;51710;38.732;-121.358;2023-02-28T01:07:15;4.97;;;0.85;;
64966;SDS011;51710;38.732;-121.358;2023-02-28T01:09:41;1.85;;;0.60;;
64966;SDS011;51710;38.732;-121.358;2023-02-28T01:12:08;3.58;;;0.60;;
64966;SDS011;51710;38.732;-121.358;2023-02-28T01:14:34;2.97;;;0.80;;
64966;SDS011;51710;38.732;-121.358;2023-02-28T01:17:01;5.13;;;1.48;;
64966;SDS011;51710;38.732;-121.358;2023-02-28T01:19:27;4.10;;;0.98;;
64966;SDS011;51710;38.732;-121.358;2023-02-28T01:21:54;2.17;;;0.82;;
64966;SDS011;51710;38.732;-121.358;2023-02-28T01:24:20;2.97;;;0.90;;
64966;SDS011;51710;38.732;-121.358;2023-02-28T01:26:46;3.65;;;0.75;;
64966;SDS011;51710;38.732;-121.358;2023-02-28T01:29:12;3.60;;;0.90;;
64966;SDS011;51710;38.732;-121.358;2023-02-28T01:31:39;2.25;;;1.30;;
64966;SDS011;51710;38.732;-121.358;2023-02-28T01:34:05;26.58;;;14.32;;
64966;SDS011;51710;38.732;-121.358;2023-02-28T01:36:31;17.92;;;10.13;;
64966;SDS011;51710;38.732;-121.358;2023-02-28T01:38:57;20.90;;;11.18;;
64966;SDS011;51710;38.732;-121.358;2023-02-28T01:41:27;7.85;;;3.13;;
64966;SDS011;51710;38.732;-121.358;2023-02-28T01:44:00;6.20;;;1.90;;
64966;SDS011;51710;38.732;-121.358;2023-02-28T01:46:32;5.88;;;1.10;;
64966;SDS011;51710;38.732;-121.358;2023-02-28T01:49:02;3.25;;;1.10;;
64966;SDS011;51710;38.732;-121.358;2023-02-28T01:51:38;4.57;;;1.10;;
64966;SDS011;51710;38.732;-121.358;2023-02-28T01:54:20;3.72;;;1.15;;
64966;SDS011;51710;38.732;-121.358;2023-02-28T01:56:54;3.90;;;0.93;;
64966;SDS011;51710;38.732;-121.358;2023-02-28T01:59:29;4.00;;;0.88;;
64966;SDS011;51710;38.732;-121.358;2023-02-28T02:01:57;6.05;;;1.00;;
64966;SDS011;51710;38.732;-121.358;2023-02-28T02:04:26;3.58;;;1.20;;
64966;SDS011;51710;38.732;-121.358;2023-02-28T02:06:58;3.30;;;0.90;;
64966;SDS011;51710;38.732;-121.358;2023-02-28T02:09:25;2.72;;;0.73;;
64966;SDS011;51710;38.732;-121.358;2023-02-28T02:11:51;5.65;;;1.17;;
64966;SDS011;51710;38.732;-121.358;2023-02-28T02:17:11;2.90;;;1.35;;
64966;SDS011;51710;38.732;-121.358;2023-02-28T02:20:16;1.52;;;0.70;;
64966;SDS011;51710;38.732;-121.358;2023-02-28T02:32:16;2.05;;;0.80;;
64966;SDS011;51710;38.732;-121.358;2023-02-28T02:34:51;2.25;;;1.00;;
64966;SDS011;51710;38.732;-121.358;2023-02-28T02:40:44;2.72;;;0.98;;
64966;SDS011;51710;38.732;-121.358;2023-02-28T02:43:15;4.07;;;0.90;;
64966;SDS011;51710;38.732;-121.358;2023-02-28T02:45:52;3.97;;;0.95;;
64966;SDS011;51710;38.732;-121.358;2023-02-28T02:48:24;3.97;;;1.25;;
64966;SDS011;51710;38.732;-121.358;2023-02-28T02:51:00;4.30;;;0.80;;
64966;SDS011;51710;38.732;-121.358;2023-02-28T02:53:38;2.38;;;0.88;;
64966;SDS011;51710;38.732;-121.358;2023-02-28T02:56:15;3.50;;;1.02;;
64966;SDS011;51710;38.732;-121.358;2023-02-28T02:58:45;2.38;;;0.80;;
64966;SDS011;51710;38.732;-121.358;2023-02-28T03:01:16;3.58;;;1.23;;
64966;SDS011;51710;38.732;-121.358;2023-02-28T03:04:01;4.45;;;1.33;;
64966;SDS011;51710;38.732;-121.358;2023-02-28T03:06:31;5.78;;;1.08;;
64966;SDS011;51710;38.732;-121.358;2023-02-28T03:08:57;8.07;;;1.65;;
64966;SDS011;51710;38.732;-121.358;2023-02-28T03:11:25;4.43;;;1.17;;
64966;SDS011;51710;38.732;-121.358;2023-02-28T03:16:55;2.83;;;1.10;;
64966;SDS011;51710;38.732;-121.358;2023-02-28T03:27:49;6.80;;;1.40;;
64966;SDS011;51710;38.732;-121.358;2023-02-28T03:30:38;4.07;;;1.55;;
64966;SDS011;51710;38.732;-121.358;2023-02-28T03:33:21;4.53;;;1.35;;
64966;SDS011;51710;38.732;-121.358;2023-02-28T03:36:13;4.97;;;1.23;;
64966;SDS011;51710;38.732;-121.358;2023-02-28T03:41:36;3.15;;;0.90;;
64966;SDS011;51710;38.732;-121.358;2023-02-28T03:44:12;1.88;;;0.80;;
64966;SDS011;51710;38.732;-121.358;2023-02-28T03:50:02;2.25;;;0.95;;
64966;SDS011;51710;38.732;-121.358;2023-02-28T03:52:51;2.85;;;0.65;;
64966;SDS011;51710;38.732;-121.358;2023-02-28T03:55:19;2.33;;;0.80;;
64966;SDS011;51710;38.732;-121.358;2023-02-28T03:57:56;2.15;;;0.90;;
64966;SDS011;51710;38.732;-121.358;2023-02-28T04:00:35;6.25;;;1.67;;
64966;SDS011;51710;38.732;-121.358;2023-02-28T04:03:05;4.43;;;0.98;;
64966;SDS011;51710;38.732;-121.358;2023-02-28T04:05:31;3.63;;;0.80;;
64966;SDS011;51710;38.732;-121.358;2023-02-28T04:08:06;3.63;;;1.23;;
64966;SDS011;51710;38.732;-121.358;2023-02-28T04:10:33;3.83;;;1.13;;
64966;SDS011;51710;38.732;-121.358;2023-02-28T04:12:59;1.98;;;0.63;;
64966;SDS011;51710;38.732;-121.358;2023-02-28T04:15:25;4.10;;;1.00;;
64966;SDS011;51710;38.732;-121.358;2023-02-28T04:17:52;6.47;;;1.38;;
64966;SDS011;51710;38.732;-121.358;2023-02-28T04:20:19;2.78;;;0.95;;
64966;SDS011;51710;38.732;-121.358;2023-02-28T04:22:45;6.03;;;1.10;;
64966;SDS011;51710;38.732;-121.358;2023-02-28T04:25:11;5.70;;;1.40;;
64966;SDS011;51710;38.732;-121.358;2023-02-28T04:27:38;5.15;;;1.40;;
64966;SDS011;51710;38.732;-121.358;2023-02-28T04:30:04;6.90;;;1.13;;
64966;SDS011;51710;38.732;-121.358;2023-02-28T04:32:31;3.90;;;1.40;;
64966;SDS011;51710;38.732;-121.358;2023-02-28T04:35:00;4.80;;;1.30;;
64966;SDS011;51710;38.732;-121.358;2023-02-28T04:37:26;5.00;;;1.92;;
64966;SDS011;51710;38.732;-121.358;2023-02-28T04:39:54;4.40;;;1.20;;
64966;SDS011;51710;38.732;-121.358;2023-02-28T04:42:20;2.88;;;1.05;;
64966;SDS011;51710;38.732;-121.358;2023-02-28T04:44:46;3.50;;;1.70;;
64966;SDS011;51710;38.732;-121.358;2023-02-28T04:47:13;6.45;;;2.05;;
64966;SDS011;51710;38.732;-121.358;2023-02-28T04:49:39;7.78;;;1.30;;
64966;SDS011;51710;38.732;-121.358;2023-02-28T04:52:06;3.38;;;1.00;;
64966;SDS011;51710;38.732;-121.358;2023-02-28T04:54:33;3.55;;;1.00;;
64966;SDS011;51710;38.732;-121.358;2023-02-28T04:56:59;8.55;;;1.25;;
64966;SDS011;51710;38.732;-121.358;2023-02-28T04:59:26;1.73;;;0.82;;
64966;SDS011;51710;38.732;-121.358;2023-02-28T05:01:53;3.17;;;0.90;;
64966;SDS011;51710;38.732;-121.358;2023-02-28T05:04:19;3.60;;;0.80;;
64966;SDS011;51710;38.732;-121.358;2023-02-28T05:06:45;3.70;;;0.80;;
64966;SDS011;51710;38.732;-121.358;2023-02-28T05:09:11;2.63;;;1.02;;
64966;SDS011;51710;38.732;-121.358;2023-02-28T05:11:38;3.00;;;1.13;;
64966;SDS011;51710;38.732;-121.358;2023-02-28T05:14:06;5.03;;;1.10;;
64966;SDS011;51710;38.732;-121.358;2023-02-28T05:16:37;5.20;;;1.20;;
64966;SDS011;51710;38.732;-121.358;2023-02-28T05:19:03;5.50;;;1.58;;
64966;SDS011;51710;38.732;-121.358;2023-02-28T05:23:58;3.55;;;0.90;;
64966;SDS011;51710;38.732;-121.358;2023-02-28T05:26:27;8.30;;;1.15;;
64966;SDS011;51710;38.732;-121.358;2023-02-28T05:28:54;1.40;;;0.60;;
64966;SDS011;51710;38.732;-121.358;2023-02-28T05:31:21;2.53;;;0.90;;
64966;SDS011;51710;38.732;-121.358;2023-02-28T05:33:48;4.03;;;1.48;;
64966;SDS011;51710;38.732;-121.358;2023-02-28T05:36:14;5.22;;;1.30;;
64966;SDS011;51710;38.732;-121.358;2023-02-28T05:38:41;8.60;;;1.42;;
64966;SDS011;51710;38.732;-121.358;2023-02-28T05:41:08;6.35;;;1.50;;
64966;SDS011;51710;38.732;-121.358;2023-02-28T05:43:36;3.10;;;1.30;;
64966;SDS011;51710;38.732;-121.358;2023-02-28T05:46:03;4.57;;;1.15;;
64966;SDS011;51710;38.732;-121.358;2023-02-28T05:48:31;4.72;;;1.33;;
64966;SDS011;51710;38.732;-121.358;2023-02-28T05:50:58;3.47;;;1.27;;
64966;SDS011;51710;38.732;-121.358;2023-02-28T05:53:25;5.05;;;1.50;;
64966;SDS011;51710;38.732;-121.358;2023-02-28T05:55:51;3.80;;;1.48;;
64966;SDS011;51710;38.732;-121.358;2023-02-28T05:58:18;6.55;;;1.33;;
64966;SDS011;51710;38.732;-121.358;2023-02-28T06:00:44;6.45;;;1.30;;
64966;SDS011;51710;38.732;-121.358;2023-02-28T06:03:11;2.95;;;0.90;;
64966;SDS011;51710;38.732;-121.358;2023-02-28T06:05:37;6.90;;;2.15;;
64966;SDS011;51710;38.732;-121.358;2023-02-28T06:08:04;5.05;;;1.40;;
64966;SDS011;51710;38.732;-121.358;2023-02-28T06:10:36;7.05;;;1.10;;
64966;SDS011;51710;38.732;-121.358;2023-02-28T06:13:03;4.05;;;1.27;;
64966;SDS011;51710;38.732;-121.358;2023-02-28T06:15:30;4.82;;;1.30;;
64966;SDS011;51710;38.732;-121.358;2023-02-28T06:17:56;3.15;;;1.02;;
64966;SDS011;51710;38.732;-121.358;2023-02-28T06:20:24;5.10;;;1.00;;
64966;SDS011;51710;38.732;-121.358;2023-02-28T06:22:57;2.83;;;1.23;;
64966;SDS011;51710;38.732;-121.358;2023-02-28T06:25:24;3.30;;;1.40;;
64966;SDS011;51710;38.732;-121.358;2023-02-28T06:27:52;6.38;;;1.40;;
64966;SDS011;51710;38.732;-121.358;2023-02-28T06:30:19;6.40;;;1.02;;
64966;SDS011;51710;38.732;-121.358;2023-02-28T06:32:49;6.60;;;0.90;;
64966;SDS011;51710;38.732;-121.358;2023-02-28T06:35:17;2.28;;;0.80;;
64966;SDS011;51710;38.732;-121.358;2023-02-28T06:37:43;3.33;;;1.08;;
64966;SDS011;51710;38.732;-121.358;2023-02-28T06:40:10;2.85;;;0.85;;
64966;SDS011;51710;38.732;-121.358;2023-02-28T06:42:38;2.67;;;1.02;;
64966;SDS011;51710;38.732;-121.358;2023-02-28T06:45:04;4.05;;;1.33;;
64966;SDS011;51710;38.732;-121.358;2023-02-28T06:47:35;2.83;;;1.00;;
64966;SDS011;51710;38.732;-121.358;2023-02-28T06:50:02;9.43;;;1.25;;
64966;SDS011;51710;38.732;-121.358;2023-02-28T06:52:30;6.72;;;1.25;;
64966;SDS011;51710;38.732;-121.358;2023-02-28T06:54:56;4.75;;;0.95;;
64966;SDS011;51710;38.732;-121.358;2023-02-28T06:57:31;3.45;;;1.13;;
64966;SDS011;51710;38.732;-121.358;2023-02-28T06:59:59;4.67;;;1.00;;
64966;SDS011;51710;38.732;-121.358;2023-02-28T07:02:28;4.20;;;0.70;;
64966;SDS011;51710;38.732;-121.358;2023-02-28T07:04:54;4.63;;;0.98;;
64966;SDS011;51710;38.732;-121.358;2023-02-28T07:07:20;4.25;;;1.73;;
64966;SDS011;51710;38.732;-121.358;2023-02-28T07:09:47;5.50;;;1.42;;
64966;SDS011;51710;38.732;-121.358;2023-02-28T07:12:13;5.47;;;1.50;;
64966;SDS011;51710;38.732;-121.358;2023-02-28T07:14:39;3.78;;;1.20;;
64966;SDS011;51710;38.732;-121.358;2023-02-28T07:17:09;4.78;;;1.02;;
64966;SDS011;51710;38.732;-121.358;2023-02-28T07:19:39;7.15;;;1.98;;
64966;SDS011;51710;38.732;-121.358;2023-02-28T07:22:06;3.17;;;1.00;;
64966;SDS011;51710;38.732;-121.358;2023-02-28T07:24:33;5.75;;;1.00;;
64966;SDS011;51710;38.732;-121.358;2023-02-28T07:27:00;5.63;;;1.10;;
64966;SDS011;51710;38.732;-121.358;2023-02-28T07:29:26;4.85;;;0.95;;
64966;SDS011;51710;38.732;-121.358;2023-02-28T07:31:53;4.13;;;0.77;;
64966;SDS011;51710;38.732;-121.358;2023-02-28T07:34:20;9.63;;;1.17;;
64966;SDS011;51710;38.732;-121.358;2023-02-28T07:36:46;7.43;;;1.42;;
64966;SDS011;51710;38.732;-121.358;2023-02-28T07:39:13;7.50;;;1.70;;
64966;SDS011;51710;38.732;-121.358;2023-02-28T07:41:39;5.25;;;1.10;;
64966;SDS011;51710;38.732;-121.358;2023-02-28T07:44:11;6.35;;;1.35;;
64966;SDS011;51710;38.732;-121.358;2023-02-28T07:46:37;4.60;;;1.17;;
64966;SDS011;51710;38.732;-121.358;2023-02-28T07:49:04;5.90;;;1.30;;
64966;SDS011;51710;38.732;-121.358;2023-02-28T07:51:32;7.10;;;1.55;;
64966;SDS011;51710;38.732;-121.358;2023-02-28T07:53:59;6.80;;;1.60;;
64966;SDS011;51710;38.732;-121.358;2023-02-28T07:56:25;4.60;;;1.40;;
64966;SDS011;51710;38.732;-121.358;2023-02-28T07:58:51;5.35;;;1.23;;
64966;SDS011;51710;38.732;-121.358;2023-02-28T08:01:18;3.80;;;1.20;;
64966;SDS011;51710;38.732;-121.358;2023-02-28T08:03:44;6.07;;;1.13;;
64966;SDS011;51710;38.732;-121.358;2023-02-28T08:06:21;12.98;;;1.40;;
64966;SDS011;51710;38.732;-121.358;2023-02-28T08:08:48;7.15;;;1.55;;
64966;SDS011;51710;38.732;-121.358;2023-02-28T08:11:15;6.80;;;1.92;;
64966;SDS011;51710;38.732;-121.358;2023-02-28T08:13:42;6.55;;;1.20;;
64966;SDS011;51710;38.732;-121.358;2023-02-28T08:16:10;4.00;;;1.00;;
64966;SDS011;51710;38.732;-121.358;2023-02-28T08:18:40;6.30;;;2.10;;
64966;SDS011;51710;38.732;-121.358;2023-02-28T08:21:07;7.72;;;1.30;;
64966;SDS011;51710;38.732;-121.358;2023-02-28T08:23:34;4.20;;;1.20;;
64966;SDS011;51710;38.732;-121.358;2023-02-28T08:26:00;6.53;;;2.20;;
64966;SDS011;51710;38.732;-121.358;2023-02-28T08:28:27;6.15;;;1.55;;
64966;SDS011;51710;38.732;-121.358;2023-02-28T08:30:53;8.48;;;1.48;;
64966;SDS011;51710;38.732;-121.358;2023-02-28T08:33:20;5.57;;;1.30;;
64966;SDS011;51710;38.732;-121.358;2023-02-28T08:35:48;4.18;;;1.00;;
64966;SDS011;51710;38.732;-121.358;2023-02-28T08:38:14;5.40;;;1.40;;
64966;SDS011;51710;38.732;-121.358;2023-02-28T08:40:40;6.43;;;1.20;;
64966;SDS011;51710;38.732;-121.358;2023-02-28T08:43:06;5.22;;;1.27;;
64966;SDS011;51710;38.732;-121.358;2023-02-28T08:45:32;11.07;;;2.60;;
64966;SDS011;51710;38.732;-121.358;2023-02-28T08:47:59;7.43;;;1.52;;
64966;SDS011;51710;38.732;-121.358;2023-02-28T08:50:25;2.95;;;1.00;;
64966;SDS011;51710;38.732;-121.358;2023-02-28T08:52:51;9.75;;;1.30;;
64966;SDS011;51710;38.732;-121.358;2023-02-28T08:55:18;8.02;;;1.30;;
64966;SDS011;51710;38.732;-121.358;2023-02-28T08:57:44;5.60;;;1.10;;
64966;SDS011;51710;38.732;-121.358;2023-02-28T09:00:10;5.40;;;1.08;;
64966;SDS011;51710;38.732;-121.358;2023-02-28T09:02:39;5.75;;;1.20;;
64966;SDS011;51710;38.732;-121.358;2023-02-28T09:05:06;7.90;;;1.48;;
64966;SDS011;51710;38.732;-121.358;2023-02-28T09:07:33;4.75;;;1.60;;
64966;SDS011;51710;38.732;-121.358;2023-02-28T09:09:59;4.90;;;1.20;;
64966;SDS011;51710;38.732;-121.358;2023-02-28T09:12:26;6.05;;;1.60;;
64966;SDS011;51710;38.732;-121.358;2023-02-28T09:14:58;6.72;;;1.40;;
64966;SDS011;51710;38.732;-121.358;2023-02-28T09:17:24;8.32;;;1.65;;
64966;SDS011;51710;38.732;-121.358;2023-02-28T09:19:50;6.43;;;1.33;;
64966;SDS011;51710;38.732;-121.358;2023-02-28T09:22:16;10.57;;;1.95;;
64966;SDS011;51710;38.732;-121.358;2023-02-28T09:24:42;5.07;;;0.98;;
64966;SDS011;51710;38.732;-121.358;2023-02-28T09:27:10;8.23;;;1.45;;
64966;SDS011;51710;38.732;-121.358;2023-02-28T09:29:36;7.43;;;1.02;;
64966;SDS011;51710;38.732;-121.358;2023-02-28T09:32:03;5.30;;;1.00;;
64966;SDS011;51710;38.732;-121.358;2023-02-28T09:34:30;7.13;;;1.10;;
64966;SDS011;51710;38.732;-121.358;2023-02-28T09:36:57;7.32;;;1.52;;
64966;SDS011;51710;38.732;-121.358;2023-02-28T09:39:23;5.43;;;1.73;;
64966;SDS011;51710;38.732;-121.358;2023-02-28T09:41:52;4.10;;;1.45;;
64966;SDS011;51710;38.732;-121.358;2023-02-28T09:44:22;1.65;;;0.93;;
64966;SDS011;51710;38.732;-121.358;2023-02-28T09:46:54;6.65;;;1.35;;
64966;SDS011;51710;38.732;-121.358;2023-02-28T09:49:37;7.93;;;1.73;;
64966;SDS011;51710;38.732;-121.358;2023-02-28T09:52:12;7.78;;;1.20;;
64966;SDS011;51710;38.732;-121.358;2023-02-28T09:54:42;5.38;;;0.93;;
64966;SDS011;51710;38.732;-121.358;2023-02-28T10:00:10;6.50;;;1.23;;
64966;SDS011;51710;38.732;-121.358;2023-02-28T10:05:25;5.53;;;1.08;;
64966;SDS011;51710;38.732;-121.358;2023-02-28T10:08:02;3.80;;;1.08;;
64966;SDS011;51710;38.732;-121.358;2023-02-28T10:13:12;5.60;;;1.20;;
64966;SDS011;51710;38.732;-121.358;2023-02-28T10:16:07;4.70;;;1.58;;
64966;SDS011;51710;38.732;-121.358;2023-02-28T10:18:49;5.15;;;1.00;;
64966;SDS011;51710;38.732;-121.358;2023-02-28T10:21:39;3.17;;;0.90;;
64966;SDS011;51710;38.732;-121.358;2023-02-28T10:26:58;3.13;;;1.20;;
64966;SDS011;51710;38.732;-121.358;2023-02-28T10:29:27;5.18;;;0.98;;
64966;SDS011;51710;38.732;-121.358;2023-02-28T10:31:57;3.15;;;0.80;;
64966;SDS011;51710;38.732;-121.358;2023-02-28T10:34:26;3.80;;;1.02;;
64966;SDS011;51710;38.732;-121.358;2023-02-28T10:36:53;5.68;;;1.00;;
64966;SDS011;51710;38.732;-121.358;2023-02-28T10:42:18;5.13;;;0.90;;
64966;SDS011;51710;38.732;-121.358;2023-02-28T10:45:11;4.72;;;1.20;;
64966;SDS011;51710;38.732;-121.358;2023-02-28T10:48:25;3.13;;;1.00;;
64966;SDS011;51710;38.732;-121.358;2023-02-28T10:53:24;5.70;;;0.98;;
64966;SDS011;51710;38.732;-121.358;2023-02-28T10:58:42;3.17;;;0.85;;
64966;SDS011;51710;38.732;-121.358;2023-02-28T11:01:18;3.08;;;0.70;;
64966;SDS011;51710;38.732;-121.358;2023-02-28T11:03:51;4.88;;;1.05;;
64966;SDS011;51710;38.732;-121.358;2023-02-28T11:06:19;2.95;;;0.95;;
64966;SDS011;51710;38.732;-121.358;2023-02-28T11:08:53;2.47;;;0.60;;
64966;SDS011;51710;38.732;-121.358;2023-02-28T11:11:30;2.65;;;1.30;;
64966;SDS011;51710;38.732;-121.358;2023-02-28T11:14:22;3.45;;;0.88;;
64966;SDS011;51710;38.732;-121.358;2023-02-28T11:16:51;5.13;;;0.90;;
64966;SDS011;51710;38.732;-121.358;2023-02-28T11:19:19;6.95;;;1.23;;
64966;SDS011;51710;38.732;-121.358;2023-02-28T11:22:08;1.90;;;0.73;;
64966;SDS011;51710;38.732;-121.358;2023-02-28T11:24:43;8.45;;;1.80;;
64966;SDS011;51710;38.732;-121.358;2023-02-28T11:27:26;4.35;;;0.90;;
64966;SDS011;51710;38.732;-121.358;2023-02-28T11:30:02;4.53;;;0.90;;
64966;SDS011;51710;38.732;-121.358;2023-02-28T11:32:30;3.55;;;0.85;;
64966;SDS011;51710;38.732;-121.358;2023-02-28T11:35:01;4.47;;;0.85;;
64966;SDS011;51710;38.732;-121.358;2023-02-28T11:37:40;3.13;;;0.85;;
64966;SDS011;51710;38.732;-121.358;2023-02-28T11:40:13;4.78;;;1.00;;
64966;SDS011;51710;38.732;-121.358;2023-02-28T11:45:44;9.38;;;1.00;;
64966;SDS011;51710;38.732;-121.358;2023-02-28T11:48:21;3.90;;;0.80;;
64966;SDS011;51710;38.732;-121.358;2023-02-28T11:59:19;2.15;;;0.68;;
64966;SDS011;51710;38.732;-121.358;2023-02-28T12:02:23;1.83;;;0.80;;
64966;SDS011;51710;38.732;-121.358;2023-02-28T12:05:03;1.98;;;0.90;;
64966;SDS011;51710;38.732;-121.358;2023-02-28T12:15:46;7.65;;;1.10;;
64966;SDS011;51710;38.732;-121.358;2023-02-28T12:21:18;2.88;;;0.80;;
64966;SDS011;51710;38.732;-121.358;2023-02-28T12:26:48;4.07;;;1.30;;
64966;SDS011;51710;38.732;-121.358;2023-02-28T12:29:19;3.30;;;0.95;;
64966;SDS011;51710;38.732;-121.358;2023-02-28T12:31:51;1.98;;;0.82;;
64966;SDS011;51710;38.732;-121.358;2023-02-28T12:34:37;2.63;;;0.73;;
64966;SDS011;51710;38.732;-121.358;2023-02-28T12:37:17;3.10;;;0.77;;
64966;SDS011;51710;38.732;-121.358;2023-02-28T12:39:55;3.90;;;0.82;;
64966;SDS011;51710;38.732;-121.358;2023-02-28T12:42:32;3.45;;;0.90;;
64966;SDS011;51710;38.732;-121.358;2023-02-28T12:45:05;3.38;;;0.98;;
64966;SDS011;51710;38.732;-121.358;2023-02-28T12:47:38;2.15;;;0.80;;
64966;SDS011;51710;38.732;-121.358;2023-02-28T12:50:09;4.55;;;0.95;;
64966;SDS011;51710;38.732;-121.358;2023-02-28T12:52:43;4.18;;;1.27;;
64966;SDS011;51710;38.732;-121.358;2023-02-28T13:01:33;4.25;;;1.10;;
64966;SDS011;51710;38.732;-121.358;2023-02-28T13:09:34;4.25;;;1.00;;
64966;SDS011;51710;38.732;-121.358;2023-02-28T13:12:01;4.25;;;1.02;;
64966;SDS011;51710;38.732;-121.358;2023-02-28T13:14:37;5.55;;;1.02;;
64966;SDS011;51710;38.732;-121.358;2023-02-28T13:19:43;9.73;;;1.02;;
64966;SDS011;51710;38.732;-121.358;2023-02-28T13:27:48;4.95;;;0.90;;
64966;SDS011;51710;38.732;-121.358;2023-02-28T13:33:28;2.72;;;0.80;;
64966;SDS011;51710;38.732;-121.358;2023-02-28T13:38:49;1.70;;;0.98;;
64966;SDS011;51710;38.732;-121.358;2023-02-28T13:52:02;3.47;;;0.90;;
64966;SDS011;51710;38.732;-121.358;2023-02-28T14:05:40;7.78;;;0.68;;
64966;SDS011;51710;38.732;-121.358;2023-02-28T14:08:13;3.00;;;0.60;;
64966;SDS011;51710;38.732;-121.358;2023-02-28T14:10:46;3.33;;;0.57;;
64966;SDS011;51710;38.732;-121.358;2023-02-28T14:16:00;2.13;;;0.65;;
64966;SDS011;51710;38.732;-121.358;2023-02-28T14:18:34;3.95;;;0.90;;
64966;SDS011;51710;38.732;-121.358;2023-02-28T14:24:31;2.78;;;0.60;;
64966;SDS011;51710;38.732;-121.358;2023-02-28T14:30:20;2.42;;;0.65;;
64966;SDS011;51710;38.732;-121.358;2023-02-28T14:33:27;2.35;;;0.55;;
64966;SDS011;51710;38.732;-121.358;2023-02-28T14:39:05;0.85;;;0.40;;
64966;SDS011;51710;38.732;-121.358;2023-02-28T14:41:46;3.85;;;0.50;;
64966;SDS011;51710;38.732;-121.358;2023-02-28T14:44:17;1.70;;;0.65;;
64966;SDS011;51710;38.732;-121.358;2023-02-28T14:46:54;3.80;;;0.77;;
64966;SDS011;51710;38.732;-121.358;2023-02-28T14:49:32;1.60;;;0.50;;
64966;SDS011;51710;38.732;-121.358;2023-02-28T14:54:39;2.47;;;0.55;;
64966;SDS011;51710;38.732;-121.358;2023-02-28T14:57:20;1.70;;;0.55;;
64966;SDS011;51710;38.732;-121.358;2023-02-28T15:00:04;4.55;;;0.68;;
64966;SDS011;51710;38.732;-121.358;2023-02-28T15:02:36;4.22;;;0.63;;
64966;SDS011;51710;38.732;-121.358;2023-02-28T15:05:18;2.40;;;0.73;;
64966;SDS011;51710;38.732;-121.358;2023-02-28T15:07:48;6.28;;;1.60;;
64966;SDS011;51710;38.732;-121.358;2023-02-28T15:10:26;7.68;;;1.55;;
64966;SDS011;51710;38.732;-121.358;2023-02-28T15:15:23;15.65;;;6.95;;
64966;SDS011;51710;38.732;-121.358;2023-02-28T15:18:01;12.40;;;4.35;;
64966;SDS011;51710;38.732;-121.358;2023-02-28T15:20:31;7.30;;;3.50;;
64966;SDS011;51710;38.732;-121.358;2023-02-28T15:22:59;5.05;;;2.20;;
64966;SDS011;51710;38.732;-121.358;2023-02-28T15:25:26;6.35;;;1.20;;
64966;SDS011;51710;38.732;-121.358;2023-02-28T15:27:53;5.32;;;2.33;;
64966;SDS011;51710;38.732;-121.358;2023-02-28T15:33:02;2.15;;;0.80;;
64966;SDS011;51710;38.732;-121.358;2023-02-28T15:35:43;3.47;;;0.85;;
64966;SDS011;51710;38.732;-121.358;2023-02-28T15:38:16;4.85;;;1.20;;
64966;SDS011;51710;38.732;-121.358;2023-02-28T15:40:54;1.23;;;0.60;;
64966;SDS011;51710;38.732;-121.358;2023-02-28T15:48:42;1.88;;;0.90;;
64966;SDS011;51710;38.732;-121.358;2023-02-28T15:51:17;1.88;;;0.80;;
64966;SDS011;51710;38.732;-121.358;2023-02-28T15:53:49;6.10;;;0.63;;
64966;SDS011;51710;38.732;-121.358;2023-02-28T15:56:22;2.65;;;0.68;;
64966;SDS011;51710;38.732;-121.358;2023-02-28T15:58:53;2.47;;;0.60;;
64966;SDS011;51710;38.732;-121.358;2023-02-28T16:01:25;2.22;;;0.70;;
64966;SDS011;51710;38.732;-121.358;2023-02-28T16:03:57;3.92;;;1.52;;
64966;SDS011;51710;38.732;-121.358;2023-02-28T16:06:37;3.70;;;0.80;;
64966;SDS011;51710;38.732;-121.358;2023-02-28T16:09:05;1.73;;;0.98;;
64966;SDS011;51710;38.732;-121.358;2023-02-28T16:11:35;2.35;;;0.80;;
64966;SDS011;51710;38.732;-121.358;2023-02-28T16:14:04;1.50;;;0.80;;
64966;SDS011;51710;38.732;-121.358;2023-02-28T16:16:31;5.47;;;0.70;;
64966;SDS011;51710;38.732;-121.358;2023-02-28T16:18:58;3.45;;;0.73;;
64966;SDS011;51710;38.732;-121.358;2023-02-28T16:21:24;1.50;;;0.70;;
64966;SDS011;51710;38.732;-121.358;2023-02-28T16:23:51;3.03;;;1.00;;
64966;SDS011;51710;38.732;-121.358;2023-02-28T16:26:23;2.58;;;0.80;;
64966;SDS011;51710;38.732;-121.358;2023-02-28T16:28:52;4.15;;;0.85;;
64966;SDS011;51710;38.732;-121.358;2023-02-28T16:31:19;2.03;;;0.70;;
64966;SDS011;51710;38.732;-121.358;2023-02-28T16:33:46;5.07;;;0.80;;
64966;SDS011;51710;38.732;-121.358;2023-02-28T16:36:16;2.72;;;0.95;;
64966;SDS011;51710;38.732;-121.358;2023-02-28T16:38:45;3.70;;;0.90;;
64966;SDS011;51710;38.732;-121.358;2023-02-28T16:41:18;4.75;;;1.00;;
64966;SDS011;51710;38.732;-121.358;2023-02-28T16:43:47;3.72;;;0.80;;
64966;SDS011;51710;38.732;-121.358;2023-02-28T16:46:15;4.15;;;1.13;;
64966;SDS011;51710;38.732;-121.358;2023-02-28T16:48:45;1.48;;;0.80;;
64966;SDS011;51710;38.732;-121.358;2023-02-28T16:51:16;2.55;;;0.80;;
64966;SDS011;51710;38.732;-121.358;2023-02-28T16:53:43;4.57;;;1.13;;
64966;SDS011;51710;38.732;-121.358;2023-02-28T16:56:17;2.83;;;1.08;;
64966;SDS011;51710;38.732;-121.358;2023-02-28T16:58:49;2.63;;;0.90;;
64966;SDS011;51710;38.732;-121.358;2023-02-28T17:01:17;6.03;;;1.00;;